Time;durP1;ratioP1;P1;durP2;ratioP2;P2;SDS_P1;SDS_P2;PMS_P1;PMS_P2;Temp;Humidity;BMP_temperature;BMP_pressure;BME280_temperature;BME280_humidity;BME280_pressure;Samples;Min_cycle;Max_cycle;Signal;HPM_P1;HPM_P2
2022/08/07 00:01:15;;;;;;;0.30;0.30;;;;;;;17.19;59.37;102773.88;2081767;28;20053;-71
2022/08/07 00:03:13;;;;;;;0.30;0.30;;;;;;;17.16;59.38;102778.06;2083864;28;20063;-72
2022/08/07 00:04:56;;;;;;;0.30;0.30;;;;;;;17.19;59.92;102782.06;2084295;28;20056;-72
2022/08/07 00:06:35;;;;;;;0.30;0.30;;;;;;;17.19;59.38;102773.88;2076132;28;20069;-71
2022/08/07 00:08:22;;;;;;;0.30;0.30;;;;;;;17.21;59.29;102775.13;2075136;28;20057;-73
2022/08/07 00:09:59;;;;;;;0.30;0.30;;;;;;;17.22;58.63;102781.41;2082489;28;20057;-72
2022/08/07 00:11:56;;;;;;;0.30;0.30;;;;;;;17.17;59.08;102776.16;2084583;28;20087;-72
2022/08/07 00:13:36;;;;;;;0.40;0.40;;;;;;;17.16;59.02;102780.81;2076507;28;20068;-72
2022/08/07 00:15:15;;;;;;;0.30;0.30;;;;;;;17.09;59.48;102771.59;2072938;28;20045;-72
2022/08/07 00:16:55;;;;;;;0.30;0.30;;;;;;;17.09;59.69;102768.84;2075081;28;20050;-72
2022/08/07 00:18:36;;;;;;;0.30;0.30;;;;;;;17.07;59.86;102773.84;2081094;28;20080;-71
2022/08/07 00:20:16;;;;;;;0.32;0.32;;;;;;;17.07;59.37;102771.94;2074718;28;20076;-72
2022/08/07 00:21:51;;;;;;;0.40;0.40;;;;;;;17.05;59.50;102768.72;2082702;28;20059;-73
2022/08/07 00:23:05;;;;;;;0.30;0.30;;;;;;;17.07;59.69;102762.94;2085224;28;20049;-73
2022/08/07 00:24:10;;;;;;;0.30;0.30;;;;;;;17.06;59.67;102766.81;2076151;28;20089;-73
2022/08/07 00:25:13;;;;;;;0.30;0.30;;;;;;;17.06;59.87;102764.06;2068671;28;20074;-72
2022/08/07 00:26:19;;;;;;;0.30;0.30;;;;;;;17.05;59.68;102760.53;2069411;28;20445;-73
2022/08/07 00:27:43;;;;;;;0.30;0.30;;;;;;;17.01;60.15;102759.63;2070765;28;20602;-73
2022/08/07 00:28:56;;;;;;;0.30;0.30;;;;;;;16.98;59.71;102759.50;2069739;28;20564;-71
2022/08/07 00:29:59;;;;;;;0.30;0.30;;;;;;;16.97;59.82;102764.16;2077393;28;20049;-72
2022/08/07 00:31:07;;;;;;;0.30;0.30;;;;;;;16.99;59.96;102761.91;2075692;28;20045;-71
2022/08/07 00:32:17;;;;;;;0.40;0.40;;;;;;;16.96;60.01;102754.38;2071050;28;20653;-73
2022/08/07 00:33:30;;;;;;;0.40;0.40;;;;;;;16.95;60.41;102757.44;2072280;28;20085;-74
2022/08/07 00:34:35;;;;;;;0.40;0.40;;;;;;;16.96;60.41;102761.75;2070484;28;20069;-72
2022/08/07 00:35:39;;;;;;;0.38;0.38;;;;;;;16.95;60.51;102757.44;2070196;28;20473;-72
2022/08/07 00:36:44;;;;;;;0.30;0.30;;;;;;;16.96;60.44;102756.31;2075444;28;20088;-72
2022/08/07 00:37:47;;;;;;;0.40;0.40;;;;;;;16.94;60.20;102761.28;2078562;28;20424;-71
2022/08/07 00:38:53;;;;;;;0.40;0.40;;;;;;;16.94;60.44;102758.56;2071172;28;20046;-71
2022/08/07 00:39:59;;;;;;;0.40;0.40;;;;;;;16.94;60.36;102764.03;2077532;28;20075;-72
2022/08/07 00:41:04;;;;;;;0.30;0.30;;;;;;;16.95;61.06;102757.44;2069975;28;20497;-71
2022/08/07 00:42:11;;;;;;;0.35;0.35;;;;;;;16.92;60.69;102756.19;2070194;28;20133;-72
2022/08/07 00:43:15;;;;;;;0.30;0.30;;;;;;;16.93;60.63;102748.78;2069942;28;20820;-72
2022/08/07 00:44:39;;;;;;;0.30;0.30;;;;;;;16.89;60.65;102754.13;2080653;28;20468;-72
2022/08/07 00:45:43;;;;;;;0.40;0.40;;;;;;;16.91;60.23;102759.25;2085940;28;20060;-73
2022/08/07 00:46:49;;;;;;;0.30;0.30;;;;;;;16.89;60.75;102756.03;2076092;28;20056;-72
2022/08/07 00:47:52;;;;;;;0.30;0.30;;;;;;;16.92;60.35;102766.31;2076333;28;20081;-73
2022/08/07 00:49:13;;;;;;;0.40;0.40;;;;;;;16.90;60.20;102757.66;2077104;28;20421;-72
2022/08/07 00:50:38;;;;;;;0.40;0.40;;;;;;;16.86;60.40;102754.00;2065009;28;20169;-72
2022/08/07 00:51:54;;;;;;;0.35;0.35;;;;;;;16.82;60.16;102748.44;2073089;28;20202;-72
2022/08/07 00:53:00;;;;;;;0.40;0.40;;;;;;;16.83;60.28;102754.66;2073223;28;20053;-72
2022/08/07 00:54:04;;;;;;;0.40;0.40;;;;;;;16.82;60.10;102750.34;2073761;28;20057;-73
2022/08/07 00:55:07;;;;;;;0.40;0.40;;;;;;;16.79;60.46;102751.81;2076203;28;20595;-73
2022/08/07 00:56:14;;;;;;;0.30;0.30;;;;;;;16.81;60.63;102751.50;2069448;28;20578;-72
2022/08/07 00:57:17;;;;;;;0.30;0.30;;;;;;;16.79;60.13;102748.31;2069980;28;20066;-73
2022/08/07 00:58:21;;;;;;;0.30;0.30;;;;;;;16.78;60.35;102750.22;2076338;28;20060;-72
2022/08/07 00:59:26;;;;;;;0.40;0.40;;;;;;;16.78;60.56;102746.69;2086124;28;20049;-73
2022/08/07 01:00:38;;;;;;;0.38;0.38;;;;;;;16.75;60.38;102750.09;2069430;28;20045;-72
2022/08/07 01:01:55;;;;;;;0.30;0.30;;;;;;;16.72;60.35;102745.31;2058199;28;20054;-72
2022/08/07 01:03:00;;;;;;;0.30;0.30;;;;;;;16.67;60.57;102753.69;2068916;28;20600;-73
2022/08/07 01:04:05;;;;;;;0.25;0.25;;;;;;;16.62;60.63;102746.53;2061992;28;20062;-72
2022/08/07 01:05:11;;;;;;;0.30;0.30;;;;;;;16.60;60.50;102743.34;2069363;28;20046;-73
2022/08/07 01:06:23;;;;;;;0.30;0.30;;;;;;;16.52;61.22;102744.22;2063020;28;20058;-72
2022/08/07 01:07:28;;;;;;;0.30;0.30;;;;;;;16.51;61.19;102739.88;2062313;28;20089;-73
2022/08/07 01:08:33;;;;;;;0.30;0.30;;;;;;;16.50;61.38;102742.94;2077897;28;20140;-72
2022/08/07 01:09:37;;;;;;;0.30;0.30;;;;;;;16.47;61.39;102738.97;2071510;28;20066;-72
2022/08/07 01:11:01;;;;;;;0.30;0.30;;;;;;;16.37;62.10;102740.13;2080394;28;20048;-72
2022/08/07 01:12:23;;;;;;;0.30;0.30;;;;;;;16.32;62.01;102732.16;2076449;28;20058;-73
2022/08/07 01:13:34;;;;;;;0.40;0.40;;;;;;;16.34;62.31;102745.44;2070231;28;20496;-72
2022/08/07 01:14:37;;;;;;;0.30;0.30;;;;;;;16.32;62.53;102734.88;2069425;28;20057;-72
2022/08/07 01:15:49;;;;;;;0.32;0.32;;;;;;;16.29;62.65;102743.72;2069757;28;20065;-72
2022/08/07 01:17:09;;;;;;;0.30;0.30;;;;;;;16.26;62.90;102738.94;2070328;28;20607;-72
2022/08/07 01:18:12;;;;;;;0.30;0.30;;;;;;;16.29;62.98;102738.28;2069300;28;20065;-74
2022/08/07 01:19:22;;;;;;;0.30;0.30;;;;;;;16.28;62.84;102738.63;2061037;28;20069;-74
2022/08/07 01:20:34;;;;;;;0.30;0.30;;;;;;;16.28;62.59;102747.56;2061269;28;20656;-72
2022/08/07 01:21:48;;;;;;;0.20;0.20;;;;;;;16.28;62.66;102747.56;2078164;28;20600;-72
2022/08/07 01:22:56;;;;;;;0.30;0.30;;;;;;;16.27;62.56;102745.97;2076120;28;20494;-72
2022/08/07 01:24:16;;;;;;;0.30;0.30;;;;;;;16.25;62.71;102745.50;2068162;28;20088;-72
2022/08/07 01:25:24;;;;;;;0.30;0.30;;;;;;;16.22;62.77;102748.91;2064125;28;20089;-73
2022/08/07 01:26:48;;;;;;;0.30;0.30;;;;;;;16.17;62.71;102743.66;2076283;28;20476;-72
2022/08/07 01:27:55;;;;;;;0.30;0.30;;;;;;;16.15;63.15;102743.19;2061738;28;20515;-72
2022/08/07 01:29:02;;;;;;;0.30;0.30;;;;;;;16.13;63.01;102745.44;2054518;28;20569;-71
2022/08/07 01:30:08;;;;;;;0.30;0.30;;;;;;;16.13;62.92;102744.66;2053538;28;20106;-72
2022/08/07 01:31:14;;;;;;;0.30;0.30;;;;;;;16.08;63.10;102737.47;2055259;28;20546;-71
2022/08/07 01:32:21;;;;;;;0.30;0.30;;;;;;;16.02;62.96;102744.25;2062552;28;20050;-72
2022/08/07 01:33:27;;;;;;;0.35;0.35;;;;;;;15.96;63.29;102737.41;2068701;28;20057;-72
2022/08/07 01:34:51;;;;;;;0.32;0.32;;;;;;;15.83;63.74;102735.72;2071432;28;20132;-72
2022/08/07 01:35:55;;;;;;;0.30;0.30;;;;;;;15.81;64.13;102732.50;2062452;28;20043;-72
2022/08/07 01:37:16;;;;;;;0.30;0.30;;;;;;;15.77;64.67;102723.41;2065764;28;20138;-72
2022/08/07 01:38:21;;;;;;;0.30;0.30;;;;;;;15.79;64.40;102734.75;2070594;28;20160;-73
2022/08/07 01:39:32;;;;;;;0.40;0.40;;;;;;;15.79;64.57;102739.44;2070078;28;20097;-74
2022/08/07 01:41:12;;;;;;;0.40;0.40;;;;;;;15.78;64.26;102735.91;2074429;28;20041;-72
2022/08/07 01:42:28;;;;;;;0.30;0.30;;;;;;;15.81;64.25;102737.97;2072526;28;20536;-71
2022/08/07 01:43:42;;;;;;;0.30;0.30;;;;;;;15.83;64.21;102735.72;2079122;28;20049;-72
2022/08/07 01:44:46;;;;;;;0.30;0.30;;;;;;;15.86;63.93;102740.50;2083124;28;20188;-72
2022/08/07 01:45:51;;;;;;;0.40;0.40;;;;;;;15.79;64.51;102733.97;2085725;28;20496;-72
2022/08/07 01:46:58;;;;;;;0.30;0.30;;;;;;;15.74;64.76;102737.69;2073025;28;20598;-73
2022/08/07 01:48:21;;;;;;;0.40;0.40;;;;;;;15.69;64.74;102735.16;2073399;28;20571;-71
2022/08/07 01:49:36;;;;;;;0.30;0.30;;;;;;;15.65;64.64;102727.97;2083892;28;20045;-72
2022/08/07 01:50:44;;;;;;;0.30;0.30;;;;;;;15.64;65.11;102732.63;2084444;28;20131;-73
2022/08/07 01:51:49;;;;;;;0.40;0.40;;;;;;;15.60;65.43;102731.66;2083922;28;20112;-71
2022/08/07 01:53:10;;;;;;;0.40;0.40;;;;;;;15.58;65.82;102727.69;2072252;28;20049;-72
2022/08/07 01:54:38;;;;;;;0.30;0.30;;;;;;;15.56;65.55;102719.03;2068338;28;20140;-72
2022/08/07 01:55:50;;;;;;;0.30;0.30;;;;;;;15.47;65.90;102710.94;2071935;28;20057;-73
2022/08/07 01:57:00;;;;;;;0.30;0.30;;;;;;;15.55;65.82;102723.69;2070154;28;20049;-71
2022/08/07 01:58:10;;;;;;;0.38;0.38;;;;;;;15.55;65.70;102720.97;2072457;28;20525;-71
2022/08/07 01:59:42;;;;;;;0.40;0.40;;;;;;;15.50;65.77;102725.78;2070590;28;20049;-71
2022/08/07 02:00:50;;;;;;;0.40;0.40;;;;;;;15.51;65.84;102725.47;2079146;28;20524;-71
2022/08/07 02:02:07;;;;;;;0.32;0.32;;;;;;;15.51;65.84;102728.19;2087465;28;20100;-71
2022/08/07 02:03:17;;;;;;;0.40;0.40;;;;;;;15.50;65.71;102732.03;2076211;28;20055;-72
2022/08/07 02:04:47;;;;;;;0.40;0.40;;;;;;;15.45;66.09;102723.25;2084180;28;20078;-72
2022/08/07 02:06:03;;;;;;;0.40;0.40;;;;;;;15.44;66.48;102722.47;2078048;28;20080;-72
2022/08/07 02:07:33;;;;;;;;;;;;;;;15.29;67.17;102720.25;2086128;28;20044;-72
2022/08/07 02:08:41;;;;;;;0.35;0.35;;;;;;;15.39;66.48;102724.56;2076442;28;19932;-71
2022/08/07 02:09:49;;;;;;;0.30;0.30;;;;;;;15.44;66.09;102727.91;2070680;28;20050;-71
2022/08/07 02:10:59;;;;;;;0.30;0.30;;;;;;;15.45;66.36;102725.97;2071323;28;20045;-71
2022/08/07 02:12:16;;;;;;;0.40;0.40;;;;;;;15.49;66.02;102721.50;2077792;28;20054;-72
2022/08/07 02:13:42;;;;;;;0.40;0.40;;;;;;;15.47;65.88;102724.53;2073416;28;20132;-71
2022/08/07 02:15:05;;;;;;;0.30;0.30;;;;;;;15.45;65.98;102721.34;2073157;28;20142;-71
2022/08/07 02:16:17;;;;;;;0.50;0.50;;;;;;;15.46;65.95;102722.94;2064572;28;20317;-71
2022/08/07 02:17:24;;;;;;;0.40;0.40;;;;;;;15.50;66.18;102729.31;2062280;28;20636;-70
2022/08/07 02:18:37;;;;;;;0.32;0.32;;;;;;;15.49;65.91;102722.25;2071401;28;20042;-72
2022/08/07 02:19:52;;;;;;;0.40;0.40;;;;;;;15.50;66.13;102725.78;2072543;28;20053;-71
2022/08/07 02:21:11;;;;;;;0.40;0.40;;;;;;;15.48;65.86;102723.41;2073513;28;20122;-73
2022/08/07 02:22:20;;;;;;;0.40;0.40;;;;;;;15.52;65.66;102718.91;2076448;28;20544;-71
2022/08/07 02:23:30;;;;;;;0.40;0.40;;;;;;;15.52;65.74;102715.38;2068393;28;20050;-72
2022/08/07 02:24:42;;;;;;;0.40;0.40;;;;;;;15.54;65.65;102718.59;2071459;28;20502;-71
2022/08/07 02:25:50;;;;;;;0.35;0.35;;;;;;;15.56;65.33;102714.41;2072330;28;20456;-72
2022/08/07 02:27:17;;;;;;;0.35;0.35;;;;;;;15.54;65.59;102715.88;2078740;28;20618;-73
2022/08/07 02:28:21;;;;;;;0.40;0.40;;;;;;;15.55;65.35;102723.69;2078198;28;20046;-72
2022/08/07 02:29:33;;;;;;;0.30;0.30;;;;;;;15.52;65.26;102718.91;2086651;28;20060;-72
2022/08/07 02:30:39;;;;;;;0.40;0.40;;;;;;;15.51;65.42;102714.56;2084268;28;20060;-71
2022/08/07 02:31:45;;;;;;;0.30;0.30;;;;;;;15.52;65.42;102718.09;2076649;28;20041;-72
2022/08/07 02:32:51;;;;;;;0.30;0.30;;;;;;;15.50;65.55;102715.72;2077855;28;20532;-71
2022/08/07 02:34:10;;;;;;;0.40;0.40;;;;;;;15.49;65.42;102714.09;2084242;28;20049;-72
2022/08/07 02:35:27;;;;;;;0.30;0.30;;;;;;;15.47;65.25;102715.56;2078246;28;20587;-72
2022/08/07 02:36:52;;;;;;;0.40;0.40;;;;;;;15.45;65.05;102709.63;2070259;28;20544;-71
2022/08/07 02:37:56;;;;;;;0.40;0.40;;;;;;;15.48;64.91;102707.06;2069512;28;20675;-71
2022/08/07 02:39:04;;;;;;;0.30;0.30;;;;;;;15.49;65.00;102718.75;2077635;28;20165;-72
2022/08/07 02:40:21;;;;;;;0.32;0.32;;;;;;;15.47;65.02;102710.13;2071704;28;20045;-72
2022/08/07 02:41:37;;;;;;;0.30;0.30;;;;;;;15.47;65.35;102716.38;2080768;28;20515;-73
2022/08/07 02:42:50;;;;;;;0.40;0.40;;;;;;;15.47;65.14;102710.94;2083600;28;20110;-73
2022/08/07 02:43:59;;;;;;;0.30;0.30;;;;;;;15.49;64.99;102714.09;2076626;28;20094;-73
2022/08/07 02:45:05;;;;;;;0.30;0.30;;;;;;;15.49;64.89;102716.81;2085077;28;20083;-71
2022/08/07 02:46:34;;;;;;;0.30;0.30;;;;;;;15.46;65.13;102713.97;2074269;28;20045;-72
2022/08/07 02:47:40;;;;;;;0.40;0.40;;;;;;;15.46;64.94;102714.75;2073592;28;20042;-71
2022/08/07 02:48:51;;;;;;;0.40;0.40;;;;;;;15.45;65.01;102713.16;2079646;28;20103;-72
2022/08/07 02:49:58;;;;;;;0.40;0.40;;;;;;;15.48;65.01;102717.16;2082910;28;20128;-72
2022/08/07 02:51:10;;;;;;;0.40;0.40;;;;;;;15.46;65.11;102713.97;2076004;28;20053;-71
2022/08/07 02:52:40;;;;;;;0.35;0.35;;;;;;;15.45;64.71;102712.38;2083039;28;20473;-72
2022/08/07 02:53:53;;;;;;;0.40;0.40;;;;;;;15.42;64.68;102713.84;2084035;28;20524;-72
2022/08/07 02:55:02;;;;;;;0.40;0.40;;;;;;;15.44;64.71;102714.31;2077846;28;20045;-71
2022/08/07 02:56:12;;;;;;;0.30;0.30;;;;;;;15.43;64.76;102712.69;2070580;28;20137;-71
2022/08/07 02:57:25;;;;;;;0.30;0.30;;;;;;;15.43;65.10;102709.97;2080167;28;20053;-72
2022/08/07 02:58:34;;;;;;;0.30;0.30;;;;;;;15.43;65.00;102714.63;2091923;28;20507;-72
2022/08/07 02:59:41;;;;;;;0.40;0.40;;;;;;;15.45;65.07;102706.91;2075962;28;20053;-71
2022/08/07 03:00:46;;;;;;;0.30;0.30;;;;;;;15.42;64.59;102699.41;2063508;28;20061;-71
2022/08/07 03:01:53;;;;;;;0.30;0.30;;;;;;;15.43;64.62;102706.47;2071405;28;20136;-72
2022/08/07 03:03:01;;;;;;;0.30;0.30;;;;;;;15.41;65.01;102709.53;2078685;28;20045;-70
2022/08/07 03:04:12;;;;;;;0.40;0.40;;;;;;;15.40;64.95;102704.38;2076355;28;20049;-71
2022/08/07 03:05:18;;;;;;;0.30;0.30;;;;;;;15.40;64.96;102707.09;2061885;28;20054;-73
2022/08/07 03:06:27;;;;;;;0.40;0.40;;;;;;;15.39;65.20;102706.31;2071197;28;20134;-72
2022/08/07 03:07:39;;;;;;;0.40;0.40;;;;;;;15.38;65.11;102712.06;2077943;28;20049;-73
2022/08/07 03:09:04;;;;;;;0.40;0.40;;;;;;;15.34;64.93;102711.91;2088440;28;20575;-72
2022/08/07 03:10:09;;;;;;;0.32;0.32;;;;;;;15.33;64.85;102709.53;2076757;28;20076;-72
2022/08/07 03:11:19;;;;;;;0.40;0.40;;;;;;;15.29;65.05;102701.19;2070214;28;20054;-72
2022/08/07 03:12:28;;;;;;;0.40;0.40;;;;;;;15.26;65.43;102703.78;2078536;28;20108;-73
2022/08/07 03:13:39;;;;;;;0.30;0.30;;;;;;;15.21;65.53;102706.66;2078416;28;20045;-71
2022/08/07 03:15:00;;;;;;;0.40;0.40;;;;;;;15.15;65.96;102705.25;2078023;28;20057;-71
2022/08/07 03:16:10;;;;;;;0.40;0.40;;;;;;;15.14;65.68;102699.03;2069456;28;20379;-71
2022/08/07 03:17:16;;;;;;;0.30;0.30;;;;;;;15.16;66.05;102702.22;2062303;28;20054;-71
2022/08/07 03:18:20;;;;;;;0.30;0.30;;;;;;;15.17;65.62;102703.81;2077701;28;20565;-72
2022/08/07 03:19:37;;;;;;;0.30;0.30;;;;;;;15.17;66.08;102701.09;2091864;28;20627;-72
2022/08/07 03:20:45;;;;;;;0.30;0.30;;;;;;;15.18;66.14;102697.25;2077984;28;20060;-73
2022/08/07 03:21:50;;;;;;;0.30;0.30;;;;;;;15.20;65.75;102696.91;2077646;28;20080;-72
2022/08/07 03:22:56;;;;;;;0.30;0.30;;;;;;;15.18;65.67;102691.81;2083339;28;20069;-73
2022/08/07 03:24:01;;;;;;;0.40;0.40;;;;;;;15.21;65.46;102691.16;2076148;28;20049;-72
2022/08/07 03:25:27;;;;;;;0.40;0.40;;;;;;;15.18;65.70;102697.25;2088245;28;20087;-71
2022/08/07 03:26:39;;;;;;;0.40;0.40;;;;;;;15.19;65.35;102695.34;2083631;28;20048;-72
2022/08/07 03:27:55;;;;;;;0.40;0.40;;;;;;;15.19;65.57;102698.84;2069283;28;20140;-73
2022/08/07 03:29:13;;;;;;;0.32;0.32;;;;;;;15.18;65.45;102702.69;2070235;28;20045;-73
2022/08/07 03:30:24;;;;;;;0.30;0.30;;;;;;;15.19;65.79;102693.38;2069572;28;20173;-72
2022/08/07 03:31:30;;;;;;;0.40;0.40;;;;;;;15.21;65.82;102696.59;2078046;28;20056;-72
2022/08/07 03:32:52;;;;;;;0.30;0.30;;;;;;;15.20;65.74;102697.72;2070996;28;20395;-72
2022/08/07 03:34:09;;;;;;;0.30;0.30;;;;;;;15.17;65.74;102694.84;2071481;28;20081;-72
2022/08/07 03:35:25;;;;;;;0.40;0.40;;;;;;;15.11;66.30;102696.94;2064542;28;20107;-72
2022/08/07 03:36:32;;;;;;;0.40;0.40;;;;;;;15.05;67.05;102692.03;2061420;28;20618;-70
2022/08/07 03:37:37;;;;;;;0.30;0.30;;;;;;;15.00;67.13;102690.25;2069273;28;20085;-71
2022/08/07 03:38:52;;;;;;;0.40;0.40;;;;;;;14.95;67.25;102687.75;2068969;28;20448;-71
2022/08/07 03:39:56;;;;;;;0.40;0.40;;;;;;;14.94;67.75;102695.09;2077891;28;20053;-72
2022/08/07 03:41:12;;;;;;;0.30;0.30;;;;;;;14.91;67.28;102698.47;2084218;28;20099;-71
2022/08/07 03:42:30;;;;;;;0.40;0.40;;;;;;;14.89;67.76;102689.00;2075731;28;20555;-72
2022/08/07 03:43:38;;;;;;;0.40;0.40;;;;;;;14.87;67.70;102691.28;2070782;28;20136;-71
2022/08/07 03:44:46;;;;;;;0.40;0.40;;;;;;;14.87;67.73;102700.22;2069381;28;20050;-72
2022/08/07 03:45:58;;;;;;;0.40;0.40;;;;;;;14.88;67.74;102699.13;2078480;28;20057;-71
2022/08/07 03:47:05;;;;;;;0.47;0.47;;;;;;;14.89;67.67;102694.44;2076708;28;20053;-71
2022/08/07 03:48:14;;;;;;;0.40;0.40;;;;;;;14.88;67.80;102693.69;2070237;28;20049;-72
2022/08/07 03:49:17;;;;;;;0.50;0.50;;;;;;;14.87;68.06;102692.06;2077301;28;20064;-71
2022/08/07 03:50:23;;;;;;;0.52;0.52;;;;;;;14.85;68.02;102693.53;2075339;28;20057;-72
2022/08/07 03:51:33;;;;;;;0.40;0.40;;;;;;;14.82;68.21;102688.72;2070199;28;20746;-71
2022/08/07 03:52:59;;;;;;;0.55;0.55;;;;;;;14.77;68.15;102689.72;2083295;28;20083;-73
2022/08/07 03:54:04;;;;;;;0.50;0.50;;;;;;;14.77;68.49;102686.19;2076134;28;20053;-71
2022/08/07 03:55:29;;;;;;;0.50;0.50;;;;;;;14.76;68.27;102690.81;2085719;28;20306;-71
2022/08/07 03:56:55;;;;;;;0.50;0.50;;;;;;;14.76;68.49;102695.47;2077065;28;20060;-72
2022/08/07 03:58:07;;;;;;;0.57;0.57;;;;;;;14.76;67.90;102693.53;2064700;28;20054;-73
2022/08/07 03:59:32;;;;;;;0.50;0.50;;;;;;;14.73;68.52;102696.13;2083397;28;20057;-71
2022/08/07 04:00:37;;;;;;;0.43;0.43;;;;;;;14.74;68.23;102694.97;2083601;28;20045;-71
2022/08/07 04:01:50;;;;;;;0.50;0.50;;;;;;;14.70;68.36;102694.00;2078088;28;20075;-72
2022/08/07 04:02:57;;;;;;;0.50;0.50;;;;;;;14.67;68.61;102694.66;2068332;28;20042;-72
2022/08/07 04:04:06;;;;;;;0.45;0.45;;;;;;;14.63;69.05;102691.81;2065181;28;20046;-70
2022/08/07 04:05:20;;;;;;;0.50;0.50;;;;;;;14.63;69.00;102696.44;2080428;28;20452;-71
2022/08/07 04:06:47;;;;;;;0.40;0.40;;;;;;;14.54;69.25;102695.66;2090342;28;20045;-72
2022/08/07 04:07:54;;;;;;;0.43;0.43;;;;;;;14.47;70.01;102688.00;2075650;28;20061;-72
2022/08/07 04:09:02;;;;;;;0.43;0.43;;;;;;;14.46;69.48;102693.75;2069306;28;20108;-71
2022/08/07 04:10:06;;;;;;;0.50;0.50;;;;;;;14.41;70.15;102693.91;2070344;28;20061;-73
2022/08/07 04:11:19;;;;;;;0.50;0.50;;;;;;;14.35;70.17;102697.91;2078353;28;20057;-71
2022/08/07 04:12:42;;;;;;;0.50;0.50;;;;;;;14.28;70.26;102695.69;2070342;28;20501;-71
2022/08/07 04:13:49;;;;;;;0.52;0.52;;;;;;;14.27;70.41;102693.28;2066559;28;20104;-72
2022/08/07 04:15:14;;;;;;;0.60;0.60;;;;;;;14.20;70.82;102692.91;2079482;28;21455;-71
2022/08/07 04:16:20;;;;;;;0.50;0.50;;;;;;;14.17;70.81;102688.13;2077516;28;20467;-71
2022/08/07 04:17:37;;;;;;;0.50;0.50;;;;;;;14.11;71.23;102683.97;2083790;28;20250;-72
2022/08/07 04:19:01;;;;;;;0.60;0.60;;;;;;;14.08;70.67;102687.34;2079253;28;20080;-72
2022/08/07 04:20:16;;;;;;;0.60;0.60;;;;;;;14.03;71.12;102682.06;2085394;28;20045;-72
2022/08/07 04:21:21;;;;;;;0.60;0.60;;;;;;;14.04;70.77;102689.06;2068880;28;20058;-73
2022/08/07 04:22:25;;;;;;;0.50;0.50;;;;;;;14.02;70.88;102686.69;2062746;28;20047;-70
2022/08/07 04:23:34;;;;;;;0.60;0.60;;;;;;;13.97;70.59;102689.53;2077085;28;20081;-71
2022/08/07 04:24:59;;;;;;;0.50;0.50;;;;;;;13.90;70.90;102683.00;2079570;28;20136;-71
2022/08/07 04:26:06;;;;;;;0.50;0.50;;;;;;;13.88;71.20;102696.09;2076698;28;20682;-71
2022/08/07 04:27:10;;;;;;;0.50;0.50;;;;;;;13.89;71.34;102693.03;2083859;28;20053;-70
2022/08/07 04:28:34;;;;;;;0.50;0.50;;;;;;;13.85;71.15;102694.00;2082693;28;20545;-71
2022/08/07 04:29:43;;;;;;;0.50;0.50;;;;;;;13.90;70.50;102693.84;2076441;28;20132;-70
2022/08/07 04:31:11;;;;;;;0.50;0.50;;;;;;;13.87;70.96;102694.50;2078464;28;20072;-71
2022/08/07 04:32:34;;;;;;;0.50;0.50;;;;;;;13.90;70.42;102691.94;2071437;28;20714;-71
2022/08/07 04:33:40;;;;;;;0.52;0.52;;;;;;;13.95;70.54;102693.72;2060669;28;20046;-71
2022/08/07 04:34:49;;;;;;;0.57;0.57;;;;;;;14.00;70.50;102693.56;2077557;28;20496;-71
2022/08/07 04:35:56;;;;;;;0.50;0.50;;;;;;;14.04;70.39;102694.50;2078719;28;20089;-70
2022/08/07 04:37:04;;;;;;;0.50;0.50;;;;;;;14.08;69.88;102693.53;2068839;28;20050;-71
2022/08/07 04:38:24;;;;;;;0.50;0.50;;;;;;;14.11;69.69;102694.84;2074616;28;20058;-73
2022/08/07 04:39:28;;;;;;;0.50;0.50;;;;;;;14.17;69.29;102704.44;2076429;28;20046;-72
2022/08/07 04:40:42;;;;;;;0.50;0.50;;;;;;;14.21;69.25;102703.47;2085110;28;20059;-72
2022/08/07 04:41:54;;;;;;;0.50;0.50;;;;;;;14.23;68.98;102703.97;2072008;28;20124;-72
2022/08/07 04:43:00;;;;;;;0.50;0.50;;;;;;;14.26;69.16;102697.09;2063117;28;20057;-72
2022/08/07 04:44:11;;;;;;;0.50;0.50;;;;;;;14.29;68.54;102696.47;2062281;28;20133;-72
2022/08/07 04:45:28;;;;;;;0.50;0.50;;;;;;;14.30;69.07;102698.84;2078072;28;20052;-73
2022/08/07 04:47:00;;;;;;;0.50;0.50;;;;;;;14.31;68.92;102705.91;2072617;28;20508;-71
2022/08/07 04:48:22;;;;;;;0.50;0.50;;;;;;;14.36;69.01;102696.78;2072726;28;20053;-72
2022/08/07 04:49:38;;;;;;;0.50;0.50;;;;;;;14.39;68.59;102702.38;2077847;28;20442;-71
2022/08/07 04:50:50;;;;;;;0.50;0.50;;;;;;;14.43;68.44;102703.34;2080266;28;20045;-71
2022/08/07 04:52:03;;;;;;;0.50;0.50;;;;;;;14.45;68.41;102703.81;2079854;28;20661;-72
2022/08/07 04:53:11;;;;;;;0.50;0.50;;;;;;;14.46;68.50;102704.63;2071697;28;20057;-71
2022/08/07 04:54:41;;;;;;;0.60;0.60;;;;;;;14.42;68.22;102706.38;2068704;28;20053;-71
2022/08/07 04:56:00;;;;;;;0.50;0.50;;;;;;;14.37;68.48;102703.81;2071777;28;20501;-73
2022/08/07 04:57:29;;;;;;;0.50;0.50;;;;;;;14.30;68.51;102703.50;2077771;28;20128;-72
2022/08/07 04:59:00;;;;;;;0.45;0.45;;;;;;;14.26;68.56;102702.53;2073904;28;20060;-72
2022/08/07 05:00:38;;;;;;;0.50;0.50;;;;;;;14.19;68.74;102702.19;2078654;28;20077;-74
2022/08/07 05:01:54;;;;;;;0.50;0.50;;;;;;;14.19;69.15;102692.13;2079996;28;20042;-72
2022/08/07 05:03:05;;;;;;;0.50;0.50;;;;;;;14.20;69.13;102696.44;2070127;28;20056;-72
2022/08/07 05:04:37;;;;;;;0.60;0.60;;;;;;;14.18;68.99;102697.88;2068273;28;20093;-71
2022/08/07 05:05:53;;;;;;;0.50;0.50;;;;;;;14.19;69.57;102697.53;2065402;28;20085;-72
2022/08/07 05:07:11;;;;;;;0.50;0.50;;;;;;;14.20;69.26;102701.88;2065591;28;20478;-71
2022/08/07 05:08:43;;;;;;;0.60;0.60;;;;;;;14.21;69.23;102700.75;2087084;28;20072;-72
2022/08/07 05:10:10;;;;;;;0.50;0.50;;;;;;;14.26;69.46;102691.66;2077427;28;20121;-71
2022/08/07 05:11:24;;;;;;;0.50;0.50;;;;;;;14.30;69.31;102706.22;2071915;28;20060;-72
2022/08/07 05:12:54;;;;;;;0.57;0.57;;;;;;;14.34;68.79;102696.31;2084743;28;20097;-71
2022/08/07 05:14:08;;;;;;;0.52;0.52;;;;;;;14.38;68.74;102697.28;2085027;28;20052;-72
2022/08/07 05:15:38;;;;;;;0.60;0.60;;;;;;;14.40;68.58;102697.72;2079000;28;20584;-72
2022/08/07 05:16:46;;;;;;;0.50;0.50;;;;;;;14.45;68.87;102695.66;2086989;28;20052;-72
2022/08/07 05:17:59;;;;;;;0.50;0.50;;;;;;;14.47;68.67;102698.88;2092757;28;20059;-73
2022/08/07 05:19:12;;;;;;;0.50;0.50;;;;;;;14.48;69.03;102689.59;2076710;28;20202;-72
2022/08/07 05:20:22;;;;;;;0.50;0.50;;;;;;;14.51;68.65;102699.00;2062246;28;20073;-72
2022/08/07 05:21:29;;;;;;;0.50;0.50;;;;;;;14.52;69.13;102690.56;2071306;28;20058;-74
2022/08/07 05:22:56;;;;;;;0.50;0.50;;;;;;;14.56;68.95;102701.56;2081233;28;20060;-72
2022/08/07 05:24:10;;;;;;;0.50;0.50;;;;;;;14.58;68.79;102694.69;2084772;28;20532;-71
2022/08/07 05:25:16;;;;;;;0.50;0.50;;;;;;;14.62;69.27;102700.25;2085584;28;20056;-72
2022/08/07 05:26:42;;;;;;;0.50;0.50;;;;;;;14.64;68.87;102703.47;2079581;28;20053;-71
2022/08/07 05:27:50;;;;;;;0.50;0.50;;;;;;;14.74;68.55;102705.84;2073300;28;20541;-71
2022/08/07 05:29:16;;;;;;;0.50;0.50;;;;;;;14.81;68.73;102706.16;2073220;28;20140;-73
2022/08/07 05:30:21;;;;;;;0.50;0.50;;;;;;;14.91;69.03;102703.09;2070890;28;20079;-72
2022/08/07 05:31:41;;;;;;;0.50;0.50;;;;;;;14.97;68.58;102707.22;2070614;28;20053;-72
2022/08/07 05:32:55;;;;;;;0.50;0.50;;;;;;;15.04;68.57;102704.81;2080498;28;20508;-71
2022/08/07 05:34:03;;;;;;;0.50;0.50;;;;;;;15.15;68.06;102703.34;2069587;28;20332;-71
2022/08/07 05:35:17;;;;;;;0.40;0.40;;;;;;;15.25;67.81;102703.00;2072242;28;20552;-72
2022/08/07 05:36:50;;;;;;;0.43;0.43;;;;;;;15.36;67.46;102703.41;2072790;28;20335;-73
2022/08/07 05:38:16;;;;;;;0.50;0.50;;;;;;;15.48;67.47;102723.41;2085208;28;20052;-72
2022/08/07 05:39:41;;;;;;;0.50;0.50;;;;;;;15.61;67.44;102711.50;2092883;28;20133;-72
2022/08/07 05:41:05;;;;;;;0.50;0.50;;;;;;;15.72;67.23;102706.47;2078034;28;20057;-73
2022/08/07 05:42:18;;;;;;;0.50;0.50;;;;;;;15.81;66.00;102715.41;2072760;28;20179;-72
2022/08/07 05:43:45;;;;;;;0.50;0.50;;;;;;;15.90;66.43;102713.41;2080325;28;20523;-71
2022/08/07 05:45:11;;;;;;;0.47;0.47;;;;;;;16.01;66.62;102712.69;2080125;28;20085;-73
2022/08/07 05:46:31;;;;;;;0.43;0.43;;;;;;;16.13;66.46;102731.00;2071633;28;20181;-70